Time;durP1;ratioP1;P1;durP2;ratioP2;P2;SDS_P1;SDS_P2;PMS_P1;PMS_P2;Temp;Humidity;BMP_temperature;BMP_pressure;BME280_temperature;BME280_humidity;BME280_pressure;Samples;Min_cycle;Max_cycle;Signal;HPM_P1;HPM_P2
2022/03/18 00:00:38;;;;;;;;;;;7.90;99.90;;;;;;4973838;28;20352;-69
2022/03/18 00:03:03;;;;;;;;;;;8.00;99.90;;;;;;4973204;28;19910;-70
2022/03/18 00:05:29;;;;;;;;;;;7.90;99.90;;;;;;4956374;28;20402;-70
2022/03/18 00:07:55;;;;;;;;;;;7.90;99.90;;;;;;4972680;28;20418;-70
2022/03/18 00:10:20;;;;;;;;;;;7.90;99.90;;;;;;4973730;28;19913;-70
2022/03/18 00:12:47;;;;;;;;;;;7.90;99.90;;;;;;4972963;28;19961;-69
2022/03/18 00:15:13;;;;;;;;;;;7.90;99.90;;;;;;4972578;28;20023;-70
2022/03/18 00:17:39;;;;;;;;;;;7.90;99.90;;;;;;4972050;28;19936;-70
2022/03/18 00:20:05;;;;;;;;;;;7.90;99.90;;;;;;4974076;28;19910;-69
2022/03/18 00:22:31;;;;;;;;;;;7.90;99.90;;;;;;4971345;28;19917;-70
2022/03/18 00:24:58;;;;;;;;;;;7.90;99.90;;;;;;4977278;28;20287;-71
2022/03/18 00:27:25;;;;;;;;;;;7.90;99.90;;;;;;4975566;28;19910;-70
2022/03/18 00:29:50;;;;;;;;;;;7.80;99.90;;;;;;4993539;28;19910;-71
2022/03/18 00:32:16;;;;;;;;;;;7.80;99.90;;;;;;4975613;28;19906;-71
2022/03/18 00:34:41;;;;;;;;;;;7.80;99.90;;;;;;4993482;28;19910;-70
2022/03/18 00:37:07;;;;;;;;;;;7.70;99.90;;;;;;4975896;28;19916;-69
2022/03/18 00:39:32;;;;;;;;;;;7.70;99.90;;;;;;4975323;28;19918;-70
2022/03/18 00:41:58;;;;;;;;;;;7.70;99.90;;;;;;4975819;28;20335;-70
2022/03/18 00:44:25;;;;;;;;;;;7.60;99.90;;;;;;4975845;28;19933;-69
2022/03/18 00:46:54;;;;;;;;;;;7.60;99.90;;;;;;4976030;28;19944;-70
2022/03/18 00:52:07;;;;;;;;;;;7.50;99.90;;;;;;4992747;28;20039;-70
2022/03/18 00:54:32;;;;;;;;;;;7.70;99.90;;;;;;4974806;28;19933;-70
2022/03/18 00:56:58;;;;;;;;;;;7.60;99.90;;;;;;4975484;28;19910;-70
2022/03/18 00:59:24;;;;;;;;;;;7.50;99.90;;;;;;4974564;28;19910;-70
2022/03/18 01:01:52;;;;;;;;;;;7.60;99.90;;;;;;4975155;28;20013;-70
2022/03/18 01:04:19;;;;;;;;;;;7.50;99.90;;;;;;4992235;28;20319;-69
2022/03/18 01:06:44;;;;;;;;;;;7.60;99.90;;;;;;4974895;28;19952;-69
2022/03/18 01:09:10;;;;;;;;;;;7.50;99.90;;;;;;4992439;28;19905;-69
2022/03/18 01:11:35;;;;;;;;;;;7.50;99.90;;;;;;4991960;28;19949;-69
2022/03/18 01:14:01;;;;;;;;;;;7.40;99.90;;;;;;4974912;28;20399;-69
2022/03/18 01:16:26;;;;;;;;;;;7.40;99.90;;;;;;4991620;28;20399;-70
2022/03/18 01:18:52;;;;;;;;;;;7.40;99.90;;;;;;4992174;28;20355;-69
2022/03/18 01:21:17;;;;;;;;;;;7.40;99.90;;;;;;4974713;28;20086;-69
2022/03/18 01:23:43;;;;;;;;;;;7.50;99.90;;;;;;4973967;28;20271;-70
2022/03/18 01:26:09;;;;;;;;;;;7.40;99.90;;;;;;4973832;28;19918;-70
2022/03/18 01:28:34;;;;;;;;;;;7.40;99.90;;;;;;4991504;28;20438;-70
2022/03/18 01:31:00;;;;;;;;;;;7.40;99.90;;;;;;4974777;28;20225;-70
2022/03/18 01:33:25;;;;;;;;;;;7.40;99.90;;;;;;4991360;28;20370;-69
2022/03/18 01:35:51;;;;;;;;;;;7.40;99.90;;;;;;4992077;28;19960;-69
2022/03/18 01:38:17;;;;;;;;;;;7.40;99.90;;;;;;4974541;28;19905;-70
2022/03/18 01:40:42;;;;;;;;;;;7.40;99.90;;;;;;4973388;28;19913;-69
2022/03/18 01:43:11;;;;;;;;;;;7.30;99.90;;;;;;4974498;28;19910;-70
2022/03/18 01:45:37;;;;;;;;;;;7.30;99.90;;;;;;4991232;28;19906;-70
2022/03/18 01:48:03;;;;;;;;;;;7.30;99.90;;;;;;4992078;28;19932;-70
2022/03/18 01:50:30;;;;;;;;;;;7.20;99.90;;;;;;4991108;28;20009;-70
2022/03/18 01:52:56;;;;;;;;;;;7.20;99.90;;;;;;4974483;28;19909;-69
2022/03/18 01:55:22;;;;;;;;;;;7.30;99.90;;;;;;4991408;28;19906;-70
2022/03/18 01:57:47;;;;;;;;;;;7.20;99.90;;;;;;4992274;28;19913;-71
2022/03/18 02:00:13;;;;;;;;;;;7.10;99.90;;;;;;4974485;28;20047;-70
2022/03/18 02:02:39;;;;;;;;;;;7.10;99.90;;;;;;4973809;28;19910;-70
2022/03/18 02:05:05;;;;;;;;;;;7.20;99.90;;;;;;4991996;28;19917;-70
2022/03/18 02:07:31;;;;;;;;;;;7.10;99.90;;;;;;4973719;28;20004;-69
2022/03/18 02:09:57;;;;;;;;;;;7.10;99.90;;;;;;4974499;28;19957;-72
2022/03/18 02:12:22;;;;;;;;;;;7.20;99.90;;;;;;4973699;28;20362;-71
2022/03/18 02:14:48;;;;;;;;;;;7.10;99.90;;;;;;4991415;28;19928;-70
2022/03/18 02:17:17;;;;;;;;;;;7.10;99.90;;;;;;4974320;28;19993;-70
2022/03/18 02:19:44;;;;;;;;;;;7.10;99.90;;;;;;4973390;28;19949;-70
2022/03/18 02:22:10;;;;;;;;;;;7.10;99.90;;;;;;4991875;28;19910;-69
2022/03/18 02:24:40;;;;;;;;;;;7.00;99.90;;;;;;4991365;28;19914;-70
2022/03/18 02:27:06;;;;;;;;;;;7.20;99.90;;;;;;4991849;28;19918;-69
2022/03/18 02:29:32;;;;;;;;;;;7.10;99.90;;;;;;4973500;28;19906;-69
2022/03/18 02:31:57;;;;;;;;;;;7.10;99.90;;;;;;4991584;28;19971;-69
2022/03/18 02:34:23;;;;;;;;;;;7.00;99.90;;;;;;4991507;28;19910;-71
2022/03/18 02:36:49;;;;;;;;;;;7.00;99.90;;;;;;4974305;28;19960;-69
2022/03/18 02:39:14;;;;;;;;;;;7.00;99.90;;;;;;4994685;28;20361;-69
2022/03/18 02:41:40;;;;;;;;;;;7.00;99.90;;;;;;4995043;28;19910;-69
2022/03/18 02:44:06;;;;;;;;;;;7.00;99.90;;;;;;4977918;28;19905;-70
2022/03/18 02:46:32;;;;;;;;;;;7.00;99.90;;;;;;4976925;28;19948;-69
2022/03/18 02:49:01;;;;;;;;;;;7.00;99.90;;;;;;4995603;28;19941;-72
2022/03/18 02:51:27;;;;;;;;;;;7.10;99.90;;;;;;4976806;28;19906;-70
2022/03/18 02:53:53;;;;;;;;;;;7.00;99.90;;;;;;4994874;28;20230;-70
2022/03/18 02:56:18;;;;;;;;;;;7.00;99.90;;;;;;4977375;28;19918;-69
2022/03/18 02:58:44;;;;;;;;;;;7.10;99.90;;;;;;4976822;28;20127;-69
2022/03/18 03:01:09;;;;;;;;;;;7.00;99.90;;;;;;4977340;28;19989;-69
2022/03/18 03:03:35;;;;;;;;;;;7.00;99.90;;;;;;4976755;28;19960;-70
2022/03/18 03:08:44;;;;;;;;;;;6.90;99.90;;;;;;4994331;28;19912;-70
2022/03/18 03:11:10;;;;;;;;;;;6.90;99.90;;;;;;4977197;28;19906;-70
2022/03/18 03:13:37;;;;;;;;;;;6.80;99.90;;;;;;4994150;28;20263;-70
2022/03/18 03:16:02;;;;;;;;;;;6.80;99.90;;;;;;4977243;28;20412;-69
2022/03/18 03:18:28;;;;;;;;;;;6.70;99.90;;;;;;4994114;28;20004;-70
2022/03/18 03:20:54;;;;;;;;;;;6.70;99.90;;;;;;4994538;28;19909;-69
2022/03/18 03:23:21;;;;;;;;;;;6.70;99.90;;;;;;4977013;28;19958;-69
2022/03/18 03:25:48;;;;;;;;;;;6.70;99.90;;;;;;4975898;28;20432;-70
2022/03/18 03:28:14;;;;;;;;;;;6.70;99.90;;;;;;4976866;28;20001;-69
2022/03/18 03:30:39;;;;;;;;;;;6.70;99.90;;;;;;4976454;28;19910;-70
2022/03/18 03:33:05;;;;;;;;;;;6.70;99.90;;;;;;4976815;28;20005;-70
2022/03/18 03:35:30;;;;;;;;;;;6.70;99.90;;;;;;4976298;28;19980;-70
2022/03/18 03:37:56;;;;;;;;;;;6.70;99.90;;;;;;4994414;28;19913;-70
2022/03/18 03:40:21;;;;;;;;;;;6.80;99.90;;;;;;4976725;28;19910;-70
2022/03/18 03:42:47;;;;;;;;;;;6.70;99.90;;;;;;4993698;28;20083;-70
2022/03/18 03:45:13;;;;;;;;;;;6.70;99.90;;;;;;4994125;28;20358;-69
2022/03/18 03:47:39;;;;;;;;;;;6.80;99.90;;;;;;4993756;28;19905;-70
2022/03/18 03:50:05;;;;;;;;;;;6.80;99.90;;;;;;4976335;28;19905;-70
2022/03/18 03:52:32;;;;;;;;;;;6.80;99.90;;;;;;4975737;28;19906;-70
2022/03/18 03:54:57;;;;;;;;;;;6.70;99.90;;;;;;4976251;28;19960;-69
2022/03/18 03:57:23;;;;;;;;;;;6.80;99.90;;;;;;4976078;28;19916;-70
2022/03/18 03:59:48;;;;;;;;;;;6.70;99.90;;;;;;4993682;28;19914;-70
2022/03/18 04:02:14;;;;;;;;;;;6.70;99.90;;;;;;4976186;28;20339;-69
2022/03/18 04:04:39;;;;;;;;;;;6.80;99.90;;;;;;4975225;28;19929;-70
2022/03/18 04:07:05;;;;;;;;;;;6.80;99.90;;;;;;4976379;28;19949;-69
2022/03/18 04:09:31;;;;;;;;;;;6.70;99.90;;;;;;4993122;28;20302;-70
2022/03/18 04:11:56;;;;;;;;;;;6.70;99.90;;;;;;4976454;28;19974;-70
2022/03/18 04:14:22;;;;;;;;;;;6.60;99.90;;;;;;4993767;28;19905;-70
2022/03/18 04:16:47;;;;;;;;;;;6.60;99.90;;;;;;4975450;28;20379;-70
2022/03/18 04:19:13;;;;;;;;;;;6.50;99.90;;;;;;4993838;28;20060;-69
2022/03/18 04:21:38;;;;;;;;;;;6.60;99.90;;;;;;4992965;28;19998;-70
2022/03/18 04:24:04;;;;;;;;;;;6.60;99.90;;;;;;4993834;28;19913;-69
2022/03/18 04:26:30;;;;;;;;;;;6.70;99.90;;;;;;4992875;28;20351;-71
2022/03/18 04:28:55;;;;;;;;;;;6.70;99.90;;;;;;4975789;28;19928;-70
2022/03/18 04:31:21;;;;;;;;;;;6.60;99.90;;;;;;4975436;28;19906;-69
2022/03/18 04:33:46;;;;;;;;;;;6.70;99.90;;;;;;4975163;28;19996;-70
2022/03/18 04:36:12;;;;;;;;;;;6.60;99.90;;;;;;4993159;28;19913;-70
2022/03/18 04:38:37;;;;;;;;;;;6.70;99.90;;;;;;4992487;28;20047;-69
2022/03/18 04:41:03;;;;;;;;;;;6.60;99.90;;;;;;4992890;28;19914;-69
2022/03/18 04:43:29;;;;;;;;;;;6.60;99.90;;;;;;4975705;28;20327;-70
2022/03/18 04:45:54;;;;;;;;;;;6.50;99.90;;;;;;4974806;28;19955;-69
2022/03/18 04:48:20;;;;;;;;;;;6.60;99.90;;;;;;4975369;28;19906;-69
2022/03/18 04:50:45;;;;;;;;;;;6.60;99.90;;;;;;4992731;28;19906;-70
2022/03/18 04:53:11;;;;;;;;;;;6.50;99.90;;;;;;4992982;28;19912;-69
2022/03/18 04:55:36;;;;;;;;;;;6.60;99.90;;;;;;4974799;28;20425;-70
2022/03/18 04:58:02;;;;;;;;;;;6.50;99.90;;;;;;4992992;28;19949;-71
2022/03/18 05:00:28;;;;;;;;;;;6.40;99.90;;;;;;4991931;28;19909;-70
2022/03/18 05:02:55;;;;;;;;;;;6.40;99.90;;;;;;4974624;28;19921;-69
2022/03/18 05:05:21;;;;;;;;;;;6.50;99.90;;;;;;4992871;28;20316;-69
2022/03/18 05:07:50;;;;;;;;;;;6.40;99.90;;;;;;4974721;28;19906;-68
2022/03/18 05:10:16;;;;;;;;;;;6.40;99.90;;;;;;4992730;28;20008;-70
2022/03/18 05:12:42;;;;;;;;;;;6.30;99.90;;;;;;4974439;28;20012;-70
2022/03/18 05:15:08;;;;;;;;;;;6.30;99.90;;;;;;4992366;28;19960;-68
2022/03/18 05:17:34;;;;;;;;;;;6.40;99.90;;;;;;4974465;28;19980;-70
2022/03/18 05:20:00;;;;;;;;;;;6.50;99.90;;;;;;4974890;28;20355;-69
2022/03/18 05:22:25;;;;;;;;;;;6.50;99.90;;;;;;4974959;28;19920;-69
2022/03/18 05:24:52;;;;;;;;;;;6.50;99.90;;;;;;4991805;28;20363;-69
2022/03/18 05:27:18;;;;;;;;;;;6.50;99.90;;;;;;4974775;28;19913;-68
2022/03/18 05:29:44;;;;;;;;;;;6.30;99.90;;;;;;4991789;28;19950;-70
2022/03/18 05:32:10;;;;;;;;;;;6.40;99.90;;;;;;4974862;28;19909;-70
2022/03/18 05:34:36;;;;;;;;;;;6.40;99.90;;;;;;4974097;28;20335;-69
2022/03/18 05:37:02;;;;;;;;;;;6.30;99.90;;;;;;4974727;28;20343;-70
2022/03/18 05:39:27;;;;;;;;;;;6.30;99.90;;;;;;4992211;28;19910;-69
2022/03/18 05:41:53;;;;;;;;;;;6.40;99.90;;;;;;4991686;28;20343;-69
2022/03/18 05:44:18;;;;;;;;;;;6.40;99.90;;;;;;4974731;28;19906;-68
2022/03/18 05:46:44;;;;;;;;;;;6.40;99.90;;;;;;4974091;28;19906;-69
2022/03/18 05:49:10;;;;;;;;;;;6.30;99.90;;;;;;4974956;28;20346;-69
2022/03/18 05:51:35;;;;;;;;;;;6.30;99.90;;;;;;4974132;28;19953;-72
2022/03/18 05:54:01;;;;;;;;;;;6.30;99.90;;;;;;4974903;28;19983;-70
2022/03/18 05:59:10;;;;;;;;;;;6.20;99.90;;;;;;4992297;28;20306;-69
2022/03/18 06:01:37;;;;;;;;;;;6.30;99.90;;;;;;4973994;28;19914;-70
2022/03/18 06:04:06;;;;;;;;;;;6.40;99.90;;;;;;4974817;28;20004;-70
2022/03/18 06:06:32;;;;;;;;;;;6.40;99.90;;;;;;4992125;28;19906;-70
2022/03/18 06:11:48;;;;;;;;;;;6.30;99.90;;;;;;4992800;28;19912;-69
2022/03/18 06:14:14;;;;;;;;;;;6.40;99.90;;;;;;4978256;28;19990;-70
2022/03/18 06:16:39;;;;;;;;;;;6.40;99.90;;;;;;4977752;28;19929;-69
2022/03/18 06:19:05;;;;;;;;;;;6.40;99.90;;;;;;4978332;28;20338;-70
2022/03/18 06:21:31;;;;;;;;;;;6.40;99.90;;;;;;4995583;28;19909;-70
2022/03/18 06:23:56;;;;;;;;;;;6.30;99.90;;;;;;4995222;28;20153;-69
2022/03/18 06:26:22;;;;;;;;;;;6.30;99.90;;;;;;4995049;28;19929;-70
2022/03/18 06:28:47;;;;;;;;;;;6.40;99.90;;;;;;4977271;28;19905;-70
2022/03/18 06:31:13;;;;;;;;;;;6.40;99.90;;;;;;4995176;28;20052;-70
2022/03/18 06:33:44;;;;;;;;;;;6.40;99.90;;;;;;4994622;28;20365;-70
2022/03/18 06:36:10;;;;;;;;;;;6.40;99.90;;;;;;4977711;28;19941;-69
2022/03/18 06:38:36;;;;;;;;;;;6.40;99.90;;;;;;4976960;28;19941;-71
2022/03/18 06:41:02;;;;;;;;;;;6.40;99.90;;;;;;4976510;28;20362;-70
2022/03/18 06:43:27;;;;;;;;;;;6.40;99.90;;;;;;4995184;28;19992;-69
2022/03/18 06:45:53;;;;;;;;;;;6.40;99.90;;;;;;4993713;28;19910;-70
2022/03/18 06:48:18;;;;;;;;;;;6.50;99.90;;;;;;4976735;28;19928;-70
2022/03/18 06:50:44;;;;;;;;;;;6.50;99.90;;;;;;4993883;28;19906;-71
2022/03/18 06:53:09;;;;;;;;;;;6.60;99.90;;;;;;4976944;28;20259;-70
2022/03/18 06:55:35;;;;;;;;;;;6.70;99.90;;;;;;4977067;28;19913;-70
2022/03/18 06:58:01;;;;;;;;;;;6.70;99.90;;;;;;4976329;28;19906;-71
2022/03/18 07:00:27;;;;;;;;;;;6.80;99.90;;;;;;4989474;28;19932;-70
2022/03/18 07:02:52;;;;;;;;;;;6.80;99.90;;;;;;4988835;28;19940;-71
2022/03/18 07:05:18;;;;;;;;;;;6.80;99.90;;;;;;4989496;28;20231;-70
2022/03/18 07:07:43;;;;;;;;;;;6.90;99.90;;;;;;5010421;28;19965;-71
2022/03/18 07:10:11;;;;;;;;;;;7.70;99.90;;;;;;4994728;28;19910;-69
2022/03/18 07:12:36;;;;;;;;;;;7.40;99.90;;;;;;4994571;28;19957;-70
2022/03/18 07:15:02;;;;;;;;;;;7.30;99.90;;;;;;4995363;28;19936;-69
2022/03/18 07:20:13;;;;;;;;;;;7.40;99.90;;;;;;5007540;28;19915;-68
2022/03/18 07:22:38;;;;;;;;;;;7.40;99.90;;;;;;5009177;28;19964;-70
2022/03/18 07:25:04;;;;;;;;;;;7.40;99.90;;;;;;4992663;28;19953;-69
2022/03/18 07:27:30;;;;;;;;;;;7.40;99.90;;;;;;4994715;28;19917;-69
2022/03/18 07:29:57;;;;;;;;;;;7.40;99.90;;;;;;4995116;28;19909;-69
2022/03/18 07:32:22;;;;;;;;;;;7.60;99.90;;;;;;5012775;28;19997;-69
2022/03/18 07:34:48;;;;;;;;;;;7.60;99.90;;;;;;5012048;28;19979;-68
2022/03/18 07:37:13;;;;;;;;;;;7.80;99.90;;;;;;5012062;28;20358;-69
2022/03/18 07:39:39;;;;;;;;;;;7.90;99.90;;;;;;5012699;28;20235;-66
2022/03/18 07:42:05;;;;;;;;;;;7.90;99.90;;;;;;4993911;28;19909;-67
2022/03/18 07:44:31;;;;;;;;;;;8.00;99.90;;;;;;5005169;28;20026;-68
2022/03/18 07:46:56;;;;;;;;;;;7.90;99.90;;;;;;4992908;28;19916;-68
2022/03/18 07:49:22;;;;;;;;;;;7.70;99.90;;;;;;4995980;28;19909;-69
2022/03/18 07:51:47;;;;;;;;;;;8.00;99.90;;;;;;4994434;28;19972;-68
2022/03/18 07:54:13;;;;;;;;;;;8.20;99.90;;;;;;5010779;28;19924;-68
2022/03/18 07:56:39;;;;;;;;;;;8.30;99.90;;;;;;5009766;28;19996;-67
2022/03/18 07:59:04;;;;;;;;;;;8.40;99.90;;;;;;5011703;28;19905;-70
2022/03/18 08:01:30;;;;;;;;;;;8.20;99.90;;;;;;5011506;28;19916;-68
2022/03/18 08:03:55;;;;;;;;;;;8.40;99.90;;;;;;4992511;28;19913;-69
2022/03/18 08:06:21;;;;;;;;;;;8.40;99.90;;;;;;4983329;28;19933;-70
2022/03/18 08:08:46;;;;;;;;;;;8.60;99.90;;;;;;4993546;28;19964;-71
2022/03/18 08:11:13;;;;;;;;;;;8.60;99.90;;;;;;4994262;28;19928;-69
2022/03/18 08:13:39;;;;;;;;;;;8.90;99.90;;;;;;4988212;28;19960;-69
2022/03/18 08:16:04;;;;;;;;;;;8.90;99.90;;;;;;4993178;28;19905;-69
2022/03/18 08:18:30;;;;;;;;;;;8.80;99.90;;;;;;4992090;28;19909;-71
2022/03/18 08:20:56;;;;;;;;;;;8.90;99.90;;;;;;4985978;28;19913;-70
2022/03/18 08:23:23;;;;;;;;;;;9.30;99.90;;;;;;5008387;28;20334;-69
2022/03/18 08:25:48;;;;;;;;;;;9.40;99.90;;;;;;4992570;28;19917;-72
2022/03/18 08:28:14;;;;;;;;;;;9.90;99.90;;;;;;5011761;28;20266;-71
2022/03/18 08:30:40;;;;;;;;;;;10.00;99.90;;;;;;4994309;28;20254;-72
2022/03/18 08:33:05;;;;;;;;;;;10.30;99.90;;;;;;4993260;28;20401;-71
2022/03/18 08:35:31;;;;;;;;;;;10.50;99.90;;;;;;4993952;28;19912;-71
2022/03/18 08:37:57;;;;;;;;;;;10.40;99.90;;;;;;4993084;28;19905;-71
2022/03/18 08:40:27;;;;;;;;;;;10.60;99.90;;;;;;4986645;28;20293;-71
2022/03/18 08:42:54;;;;;;;;;;;10.80;99.90;;;;;;4991518;28;19932;-71
2022/03/18 08:45:19;;;;;;;;;;;11.20;99.90;;;;;;5010153;28;20013;-72
2022/03/18 08:47:45;;;;;;;;;;;11.30;99.90;;;;;;5009753;28;19975;-72
2022/03/18 08:50:11;;;;;;;;;;;11.20;99.90;;;;;;4993684;28;19906;-73
2022/03/18 08:52:36;;;;;;;;;;;11.60;99.90;;;;;;5008293;28;19909;-72
2022/03/18 08:55:02;;;;;;;;;;;11.80;99.90;;;;;;4992602;28;19925;-70
2022/03/18 08:57:28;;;;;;;;;;;12.00;99.80;;;;;;4993735;28;19916;-60
2022/03/18 08:59:55;;;;;;;;;;;11.80;99.90;;;;;;5010698;28;19913;-61
2022/03/18 09:02:21;;;;;;;;;;;13.50;99.90;;;;;;4993514;28;20357;-61
2022/03/18 09:04:48;;;;;;;;;;;14.30;99.90;;;;;;4993394;28;20000;-62
2022/03/18 09:07:14;;;;;;;;;;;14.50;99.90;;;;;;4987316;28;20036;-62
2022/03/18 09:09:39;;;;;;;;;;;14.90;99.90;;;;;;4993192;28;20327;-64
2022/03/18 09:12:05;;;;;;;;;;;16.10;99.90;;;;;;5010744;28;20009;-71
2022/03/18 09:14:31;;;;;;;;;;;16.30;99.40;;;;;;4991237;28;20310;-71
2022/03/18 09:16:56;;;;;;;;;;;15.40;94.70;;;;;;5006803;28;19928;-71
2022/03/18 09:19:23;;;;;;;;;;;14.80;94.80;;;;;;5007278;28;19948;-71
2022/03/18 09:21:49;;;;;;;;;;;14.50;94.70;;;;;;5009677;28;19913;-71
2022/03/18 09:24:15;;;;;;;;;;;14.30;94.90;;;;;;5011622;28;20036;-72
2022/03/18 09:26:40;;;;;;;;;;;13.80;94.40;;;;;;5010221;28;20047;-74
2022/03/18 09:29:06;;;;;;;;;;;13.30;95.30;;;;;;4991917;28;20308;-71
2022/03/18 09:31:32;;;;;;;;;;;13.00;95.80;;;;;;4992946;28;20239;-70
2022/03/18 09:33:58;;;;;;;;;;;12.90;95.70;;;;;;4992257;28;20246;-70
2022/03/18 09:36:24;;;;;;;;;;;12.90;95.80;;;;;;5007778;28;20002;-71
2022/03/18 09:38:50;;;;;;;;;;;13.00;95.80;;;;;;4990973;28;19976;-71
2022/03/18 09:41:16;;;;;;;;;;;12.90;95.40;;;;;;4991837;28;20394;-70
2022/03/18 09:43:42;;;;;;;;;;;13.20;94.90;;;;;;4993234;28;19921;-71
2022/03/18 09:46:12;;;;;;;;;;;13.30;94.80;;;;;;4993894;28;19988;-71
2022/03/18 09:48:38;;;;;;;;;;;13.60;94.40;;;;;;4999367;28;19914;-70
2022/03/18 09:51:04;;;;;;;;;;;13.60;94.00;;;;;;5016624;28;19927;-72
2022/03/18 09:53:30;;;;;;;;;;;14.00;93.50;;;;;;4999658;28;20008;-71
2022/03/18 09:55:55;;;;;;;;;;;14.10;92.90;;;;;;4998674;28;19917;-71
2022/03/18 09:58:22;;;;;;;;;;;14.30;92.30;;;;;;5016803;28;19914;-71
2022/03/18 10:00:50;;;;;;;;;;;14.40;91.80;;;;;;5008044;28;19963;-71
2022/03/18 10:03:17;;;;;;;;;;;14.60;91.30;;;;;;5017088;28;19914;-70
2022/03/18 10:05:46;;;;;;;;;;;14.80;90.20;;;;;;4998954;28;19924;-69
2022/03/18 10:08:12;;;;;;;;;;;14.80;89.90;;;;;;5008782;28;19910;-71
2022/03/18 10:10:47;;;;;;;;;;;15.10;88.70;;;;;;4999333;28;20351;-70
2022/03/18 10:13:15;;;;;;;;;;;15.20;87.10;;;;;;4998082;28;20019;-71
2022/03/18 10:15:40;;;;;;;;;;;15.40;86.80;;;;;;4999155;28;19944;-73
2022/03/18 10:18:09;;;;;;;;;;;15.80;84.50;;;;;;5016342;28;19909;-71
2022/03/18 10:20:38;;;;;;;;;;;16.10;82.00;;;;;;5010013;28;19913;-71
2022/03/18 10:23:15;;;;;;;;;;;15.90;79.60;;;;;;5010282;28;19936;-72
2022/03/18 10:25:50;;;;;;;;;;;15.90;78.40;;;;;;5012018;28;19922;-70
2022/03/18 10:28:17;;;;;;;;;;;16.20;78.00;;;;;;5016958;28;19909;-70
2022/03/18 10:30:43;;;;;;;;;;;16.60;74.80;;;;;;4998537;28;19913;-71
2022/03/18 10:33:09;;;;;;;;;;;16.50;72.20;;;;;;4997743;28;19910;-71
2022/03/18 10:38:27;;;;;;;;;;;16.40;72.00;;;;;;5017174;28;20043;-70
2022/03/18 10:40:53;;;;;;;;;;;16.50;70.70;;;;;;4998247;28;19913;-72
2022/03/18 10:43:20;;;;;;;;;;;16.80;70.10;;;;;;4998542;28;20004;-70
2022/03/18 10:46:02;;;;;;;;;;;16.90;70.20;;;;;;4999216;28;19909;-71
2022/03/18 10:48:28;;;;;;;;;;;17.60;70.80;;;;;;4998242;28;20214;-72
2022/03/18 10:51:02;;;;;;;;;;;17.70;68.10;;;;;;4998538;28;19931;-71
2022/03/18 10:53:30;;;;;;;;;;;18.20;68.00;;;;;;5016621;28;19979;-72
2022/03/18 10:55:58;;;;;;;;;;;18.70;66.70;;;;;;4998010;28;20032;-71
2022/03/18 10:58:24;;;;;;;;;;;18.60;65.00;;;;;;5013275;28;20091;-71
2022/03/18 11:00:50;;;;;;;;;;;19.10;65.30;;;;;;4995152;28;19997;-71
2022/03/18 11:03:16;;;;;;;;;;;19.60;64.60;;;;;;4994434;28;19984;-72
2022/03/18 11:05:47;;;;;;;;;;;20.10;63.60;;;;;;4995020;28;20371;-71
2022/03/18 11:08:13;;;;;;;;;;;19.80;61.00;;;;;;4995131;28;19914;-71
2022/03/18 11:13:29;;;;;;;;;;;20.30;62.20;;;;;;5013200;28;19932;-71
2022/03/18 11:15:54;;;;;;;;;;;21.20;61.90;;;;;;4994465;28;20292;-71
2022/03/18 11:18:20;;;;;;;;;;;21.20;60.70;;;;;;4977936;28;20264;-72
2022/03/18 11:20:50;;;;;;;;;;;21.50;59.70;;;;;;4994588;28;19925;-72
2022/03/18 11:23:16;;;;;;;;;;;21.30;58.80;;;;;;4993982;28;19942;-72
2022/03/18 11:25:42;;;;;;;;;;;21.30;58.90;;;;;;4991237;28;20360;-73
2022/03/18 11:28:14;;;;;;;;;;;21.00;59.00;;;;;;5001009;28;20022;-72
2022/03/18 11:30:41;;;;;;;;;;;21.10;58.40;;;;;;4991119;28;19917;-72
2022/03/18 11:33:09;;;;;;;;;;;20.60;57.90;;;;;;4991625;28;19910;-72
2022/03/18 11:35:47;;;;;;;;;;;20.80;58.20;;;;;;4991103;28;19932;-72
2022/03/18 11:38:14;;;;;;;;;;;21.30;58.40;;;;;;4987625;28;19917;-72
2022/03/18 11:40:53;;;;;;;;;;;22.00;58.50;;;;;;4990676;28;19914;-72
2022/03/18 11:43:44;;;;;;;;;;;21.90;57.80;;;;;;4991887;28;20334;-73
2022/03/18 11:46:13;;;;;;;;;;;21.40;58.40;;;;;;4985920;28;20367;-72
2022/03/18 11:48:43;;;;;;;;;;;21.50;57.80;;;;;;4987829;28;19993;-72
2022/03/18 11:51:28;;;;;;;;;;;22.10;57.20;;;;;;4982056;28;20036;-72
2022/03/18 11:53:55;;;;;;;;;;;22.00;58.20;;;;;;4971170;28;20367;-75
2022/03/18 11:56:43;;;;;;;;;;;22.30;57.40;;;;;;4970552;28;19918;-73
2022/03/18 11:59:33;;;;;;;;;;;22.30;56.30;;;;;;4964759;28;19910;-71
2022/03/18 12:02:02;;;;;;;;;;;22.20;56.00;;;;;;4985855;28;19933;-72
2022/03/18 12:04:33;;;;;;;;;;;22.30;56.10;;;;;;4972216;28;19984;-71
2022/03/18 12:07:08;;;;;;;;;;;22.30;55.70;;;;;;4989155;28;19909;-71
2022/03/18 12:09:53;;;;;;;;;;;22.70;55.50;;;;;;4971799;28;19921;-71
2022/03/18 12:12:23;;;;;;;;;;;23.20;54.40;;;;;;4972201;28;19913;-72
2022/03/18 12:14:50;;;;;;;;;;;23.60;54.30;;;;;;4965532;28;20359;-71
2022/03/18 12:17:16;;;;;;;;;;;23.80;52.80;;;;;;4977565;28;20060;-71
2022/03/18 12:19:47;;;;;;;;;;;22.90;52.80;;;;;;4986509;28;20004;-72
2022/03/18 12:22:13;;;;;;;;;;;23.30;52.30;;;;;;4988250;28;20614;-72
2022/03/18 12:24:40;;;;;;;;;;;22.70;52.50;;;;;;4990405;28;19953;-71
2022/03/18 12:27:08;;;;;;;;;;;23.60;51.80;;;;;;4981249;28;19944;-73
2022/03/18 12:29:34;;;;;;;;;;;23.70;51.70;;;;;;4991008;28;19918;-71
2022/03/18 12:32:04;;;;;;;;;;;24.10;51.80;;;;;;4989686;28;19956;-72
2022/03/18 12:34:30;;;;;;;;;;;24.00;50.30;;;;;;4990445;28;19909;-71
2022/03/18 12:36:55;;;;;;;;;;;23.70;50.40;;;;;;4989956;28;19917;-72
2022/03/18 12:39:24;;;;;;;;;;;23.50;49.40;;;;;;4989908;28;20288;-71
2022/03/18 12:41:50;;;;;;;;;;;23.50;47.70;;;;;;4990171;28;20453;-72
2022/03/18 12:44:30;;;;;;;;;;;23.30;46.30;;;;;;4989188;28;20343;-71
2022/03/18 12:46:56;;;;;;;;;;;23.10;45.60;;;;;;4990080;28;19910;-72
2022/03/18 12:49:29;;;;;;;;;;;23.30;45.00;;;;;;4989501;28;19909;-70
2022/03/18 12:51:57;;;;;;;;;;;23.50;45.80;;;;;;4990770;28;20290;-69
2022/03/18 12:54:24;;;;;;;;;;;22.80;44.80;;;;;;4990699;28;19917;-68
2022/03/18 12:56:50;;;;;;;;;;;22.70;44.10;;;;;;4989839;28;19940;-68
2022/03/18 12:59:16;;;;;;;;;;;22.90;44.70;;;;;;4988438;28;20083;-69
2022/03/18 13:01:52;;;;;;;;;;;23.10;43.90;;;;;;4972672;28;19965;-71
2022/03/18 13:04:19;;;;;;;;;;;23.10;44.10;;;;;;4972088;28;20431;-71
2022/03/18 13:06:46;;;;;;;;;;;23.00;44.30;;;;;;4988902;28;19914;-69
2022/03/18 13:09:15;;;;;;;;;;;23.20;44.20;;;;;;4972294;28;19910;-69
2022/03/18 13:11:41;;;;;;;;;;;23.10;43.80;;;;;;4972676;28;19910;-68
2022/03/18 13:14:07;;;;;;;;;;;23.30;43.90;;;;;;4971536;28;19914;-70
2022/03/18 13:16:36;;;;;;;;;;;23.10;43.40;;;;;;4988871;28;19910;-69
2022/03/18 13:19:03;;;;;;;;;;;22.90;43.10;;;;;;4971950;28;19917;-69
2022/03/18 13:21:37;;;;;;;;;;;22.90;43.50;;;;;;4971705;28;19914;-68
2022/03/18 13:24:04;;;;;;;;;;;22.50;42.80;;;;;;4970797;28;19917;-70
2022/03/18 13:26:29;;;;;;;;;;;22.30;43.20;;;;;;4972903;28;19926;-68
2022/03/18 13:28:55;;;;;;;;;;;22.20;43.00;;;;;;4972605;28;19917;-68
2022/03/18 13:34:05;;;;;;;;;;;21.70;43.40;;;;;;4990465;28;20019;-69
2022/03/18 13:36:33;;;;;;;;;;;21.70;44.00;;;;;;4989336;28;19914;-72
2022/03/18 13:39:04;;;;;;;;;;;21.40;43.10;;;;;;4985519;28;20024;-70
2022/03/18 13:41:43;;;;;;;;;;;21.90;43.20;;;;;;4983339;28;20283;-68
2022/03/18 13:44:09;;;;;;;;;;;21.70;43.00;;;;;;4995530;28;19918;-70
2022/03/18 13:46:34;;;;;;;;;;;21.90;43.40;;;;;;4983471;28;20008;-71
2022/03/18 13:49:09;;;;;;;;;;;22.00;42.90;;;;;;4988560;28;20023;-68
2022/03/18 13:51:36;;;;;;;;;;;21.90;43.40;;;;;;4987934;28;19910;-70
2022/03/18 13:54:09;;;;;;;;;;;22.50;43.00;;;;;;4986980;28;19945;-72
2022/03/18 13:56:39;;;;;;;;;;;22.40;43.10;;;;;;4985390;28;20397;-68
2022/03/18 13:59:12;;;;;;;;;;;22.20;42.90;;;;;;4986233;28;19940;-69
2022/03/18 14:01:38;;;;;;;;;;;21.60;43.70;;;;;;4983911;28;19929;-71
2022/03/18 14:04:04;;;;;;;;;;;22.00;43.30;;;;;;4970737;28;19944;-71
2022/03/18 14:06:29;;;;;;;;;;;21.80;43.10;;;;;;4987812;28;19910;-69
2022/03/18 14:08:55;;;;;;;;;;;21.50;43.10;;;;;;4985012;28;20298;-71
2022/03/18 14:14:29;;;;;;;;;;;21.80;43.00;;;;;;4987841;28;19921;-69
2022/03/18 14:17:13;;;;;;;;;;;21.90;43.50;;;;;;4989224;28;19921;-68
2022/03/18 14:19:45;;;;;;;;;;;21.90;43.10;;;;;;4987114;28;20000;-69
2022/03/18 14:22:27;;;;;;;;;;;21.60;42.80;;;;;;4986745;28;19989;-70
2022/03/18 14:24:54;;;;;;;;;;;21.40;43.60;;;;;;4987565;28;20237;-70
2022/03/18 14:27:20;;;;;;;;;;;21.20;43.90;;;;;;4989961;28;19909;-69
2022/03/18 14:29:46;;;;;;;;;;;21.00;43.70;;;;;;4990339;28;20351;-69
2022/03/18 14:32:12;;;;;;;;;;;20.50;43.80;;;;;;4990421;28;19933;-70
2022/03/18 14:34:37;;;;;;;;;;;20.60;44.40;;;;;;4993808;28;20055;-70
2022/03/18 14:37:03;;;;;;;;;;;20.80;44.30;;;;;;4993865;28;20018;-70
2022/03/18 14:39:29;;;;;;;;;;;20.90;44.50;;;;;;5011882;28;20393;-68
2022/03/18 14:41:55;;;;;;;;;;;21.20;44.80;;;;;;4993443;28;19997;-69
2022/03/18 14:44:20;;;;;;;;;;;21.10;44.90;;;;;;4992805;28;20108;-69
2022/03/18 14:46:46;;;;;;;;;;;20.70;44.50;;;;;;5011417;28;19985;-70